createdAt,value
2018-04-27T00:20:03.269Z,58.20
2018-04-27T00:22:33.025Z,58.60
2018-04-27T00:25:02.075Z,58.50
2018-04-27T00:27:31.843Z,59.00
2018-04-27T00:30:00.847Z,59.00
2018-04-27T00:32:29.879Z,58.70
2018-04-27T00:34:58.888Z,58.70
2018-04-27T00:37:27.908Z,58.90
2018-04-27T00:39:56.898Z,58.70
2018-04-27T00:42:26.009Z,58.70
2018-04-27T00:44:54.999Z,58.80
2018-04-27T00:47:24.207Z,58.90
2018-04-27T00:49:53.202Z,58.70
2018-04-27T00:52:22.197Z,58.40
2018-04-27T01:13:34.808Z,57.50
2018-04-27T01:16:03.803Z,57.50
2018-04-27T01:18:32.863Z,57.80
2018-04-27T01:21:01.859Z,57.80
2018-04-27T01:23:30.877Z,58.10
2018-04-27T01:25:59.932Z,58.00
2018-04-27T01:28:28.926Z,58.40
2018-04-27T01:30:57.929Z,58.50
2018-04-27T01:33:27.003Z,58.50
2018-04-27T01:35:56.007Z,58.30
2018-04-27T01:38:25.032Z,58.40
2018-04-27T01:40:54.032Z,58.50
2018-04-27T01:43:23.061Z,58.60
2018-04-27T01:45:52.066Z,59.10
2018-04-27T01:48:21.110Z,59.00
2018-04-27T01:50:56.012Z,58.70
2018-04-27T01:53:25.088Z,58.60
2018-04-27T01:55:54.829Z,59.00
2018-04-27T01:58:23.853Z,59.00
2018-04-27T02:00:52.851Z,59.00
2018-04-27T02:03:22.640Z,59.70
2018-04-27T02:24:36.910Z,58.80
2018-04-27T02:27:05.943Z,58.70
2018-04-27T02:29:34.938Z,58.70
2018-04-27T02:50:49.368Z,59.30
2018-04-27T02:53:18.397Z,59.20
2018-04-27T02:55:47.439Z,59.50
2018-04-27T02:58:16.437Z,59.80
2018-04-27T03:00:45.508Z,60.10
2018-04-27T03:03:14.516Z,59.70
2018-04-27T03:24:28.886Z,61.80
2018-04-27T03:26:57.885Z,61.70
2018-04-27T03:29:26.921Z,61.80
2018-04-27T03:31:55.950Z,61.80
2018-04-27T03:34:25.016Z,61.70
2018-04-27T03:36:54.774Z,61.30
2018-04-27T03:39:23.776Z,61.20
2018-04-27T03:41:53.565Z,61.30
2018-04-27T03:44:22.551Z,60.70
2018-04-27T03:46:51.603Z,60.40
2018-04-27T03:49:20.607Z,60.10
2018-04-27T03:51:49.656Z,60.10
2018-04-27T03:54:18.661Z,59.80
2018-04-27T03:56:47.894Z,59.60
2018-04-27T03:59:34.743Z,59.70
2018-04-27T04:02:21.507Z,60.50
2018-04-27T04:05:08.335Z,59.70
2018-04-27T04:07:37.332Z,59.80
2018-04-27T04:10:06.330Z,59.60
2018-04-27T04:12:35.378Z,59.60
2018-04-27T04:15:04.388Z,59.80
2018-04-27T04:17:33.408Z,59.60
2018-04-27T04:20:02.448Z,59.50
2018-04-27T04:22:31.453Z,59.50
2018-04-27T04:25:00.515Z,59.40
2018-04-27T04:46:14.850Z,60.50
2018-04-27T04:48:43.906Z,60.70
2018-04-27T04:51:18.802Z,60.50
2018-04-27T04:53:50.323Z,60.50
2018-04-27T04:56:19.339Z,60.40
2018-04-27T04:58:48.339Z,60.20
2018-04-27T05:01:17.380Z,60.00
2018-04-27T05:03:46.381Z,59.60
2018-04-27T05:06:15.416Z,59.40
2018-04-27T05:27:28.665Z,59.10
2018-04-27T05:29:57.695Z,58.60
2018-04-27T05:32:26.735Z,58.60
2018-04-27T05:34:55.743Z,58.30
2018-04-27T05:37:24.773Z,57.90
2018-04-27T05:39:53.774Z,58.30
2018-04-27T05:42:22.816Z,57.90
2018-04-27T05:44:52.582Z,56.90
2018-04-27T05:47:21.586Z,56.90
2018-04-27T05:49:50.631Z,56.60
2018-04-27T05:52:19.644Z,56.60
2018-04-27T05:54:48.640Z,55.70
2018-04-27T05:57:17.667Z,55.80
2018-04-27T05:59:46.677Z,55.00
2018-04-27T06:02:15.703Z,54.50
2018-04-27T06:04:44.798Z,53.90
2018-04-27T06:07:13.746Z,53.90
2018-04-27T06:28:28.912Z,53.20
2018-04-27T06:30:57.988Z,53.20
2018-04-27T06:33:27.029Z,53.20
2018-04-27T06:35:56.032Z,52.50
2018-04-27T06:38:25.091Z,52.10
2018-04-27T06:40:54.121Z,51.60
2018-04-27T06:43:23.954Z,50.70
2018-04-27T06:45:52.971Z,50.60
2018-04-27T06:48:21.984Z,49.80
2018-04-27T06:50:51.051Z,49.80
2018-04-27T06:53:20.073Z,48.00
2018-04-27T06:55:49.089Z,46.90
2018-04-27T06:58:18.145Z,45.90
2018-04-27T07:00:47.150Z,45.00
2018-04-27T07:03:16.209Z,42.50
2018-04-27T07:05:45.219Z,39.70
2018-04-27T07:26:58.627Z,36.10
2018-04-27T07:29:27.647Z,33.10
2018-04-27T07:31:56.659Z,33.00
2018-04-27T07:34:25.708Z,31.90
2018-04-27T07:36:54.751Z,31.80
2018-04-27T07:39:23.760Z,31.40
2018-04-27T08:00:35.556Z,30.00
2018-04-27T08:03:04.600Z,30.00
2018-04-27T08:05:33.662Z,30.40
2018-04-27T08:08:02.695Z,30.40
2018-04-27T08:10:32.469Z,30.50
2018-04-27T08:13:01.625Z,30.50
2018-04-27T08:15:30.635Z,30.60
2018-04-27T08:17:59.639Z,30.00
2018-04-27T08:20:28.720Z,29.30
2018-04-27T08:23:00.441Z,27.90
2018-04-27T08:25:31.043Z,28.20
2018-04-27T08:28:00.075Z,27.70
2018-04-27T08:30:29.091Z,27.80
2018-04-27T08:32:58.139Z,27.80
2018-04-27T08:35:27.919Z,28.70
2018-04-27T08:37:56.955Z,28.60
2018-04-27T08:40:26.741Z,31.10
2018-04-27T08:42:55.779Z,30.90
2018-04-27T08:45:24.798Z,28.80
2018-04-27T08:47:53.811Z,29.10
2018-04-27T08:50:22.973Z,29.10
2018-04-27T08:52:51.943Z,29.10
2018-04-27T08:55:20.982Z,29.40
2018-04-27T08:57:50.025Z,30.00
2018-04-27T09:00:19.023Z,29.70
2018-04-27T09:02:48.071Z,29.90
2018-04-27T09:05:17.076Z,30.00
2018-04-27T09:26:29.359Z,30.70
2018-04-27T09:28:58.376Z,30.20
2018-04-27T09:31:27.376Z,33.50
2018-04-27T09:33:56.419Z,29.70
2018-04-27T09:36:25.444Z,30.10
2018-04-27T09:38:54.483Z,30.30
2018-04-27T09:41:23.499Z,28.20
2018-04-27T09:43:52.547Z,28.30
2018-04-27T09:46:21.571Z,29.00
2018-04-27T09:48:51.367Z,29.10
2018-04-27T09:51:20.411Z,28.90
2018-04-27T09:53:49.446Z,28.50
2018-04-27T09:56:18.457Z,28.00
2018-04-27T09:58:47.495Z,27.00
2018-04-27T10:01:16.509Z,29.30
2018-04-27T10:03:45.568Z,26.70
2018-04-27T10:06:14.567Z,27.30
2018-04-27T10:08:43.613Z,27.10
2018-04-27T10:11:12.640Z,27.10
2018-04-27T10:13:41.690Z,27.80
2018-04-27T10:16:10.707Z,27.70
2018-04-27T10:18:39.715Z,27.10
2018-04-27T10:21:09.542Z,28.60
2018-04-27T10:23:38.823Z,27.80
2018-04-27T10:26:08.148Z,28.50
2018-04-27T10:28:37.225Z,27.20
2018-04-27T10:31:07.001Z,28.70
2018-04-27T10:33:36.349Z,28.90
2018-04-27T10:36:05.404Z,28.60
2018-04-27T10:38:34.467Z,27.80
2018-04-27T10:41:03.487Z,28.30
2018-04-27T10:43:32.554Z,26.00
2018-04-27T10:46:01.559Z,26.50
2018-04-27T10:48:30.578Z,27.40
2018-04-27T10:50:59.659Z,26.40
2018-04-27T10:53:28.667Z,27.00
2018-04-27T10:55:57.684Z,25.20
2018-04-27T10:58:27.483Z,26.00
2018-04-27T11:00:56.494Z,25.90
2018-04-27T11:03:26.320Z,25.40
2018-04-27T11:05:55.320Z,25.30
2018-04-27T11:08:24.411Z,27.00
2018-04-27T11:29:39.152Z,25.00
2018-04-27T11:50:53.020Z,22.40
2018-04-27T11:53:24.149Z,23.70
2018-04-27T11:55:53.175Z,23.60
2018-04-27T12:17:08.342Z,21.60
2018-04-27T12:19:37.389Z,23.60
2018-04-27T12:22:06.731Z,23.70
2018-04-27T12:24:36.707Z,22.90
2018-04-27T12:27:05.957Z,22.90
2018-04-27T12:29:35.004Z,21.10
2018-04-27T12:32:04.027Z,21.10
2018-04-27T12:53:17.866Z,21.00
2018-04-27T12:55:46.985Z,21.00
2018-04-27T13:17:01.905Z,18.70
2018-04-27T13:19:31.758Z,18.70
2018-04-27T13:22:00.770Z,18.70
2018-04-27T13:24:30.049Z,18.30
2018-04-27T13:26:59.088Z,18.80
2018-04-27T13:29:28.512Z,17.50
2018-04-27T13:50:42.670Z,16.60
2018-04-27T14:11:56.915Z,17.00
2018-04-27T14:14:26.659Z,16.90
2018-04-27T14:16:59.011Z,18.10
2018-04-27T14:19:29.421Z,17.00
2018-04-27T14:22:00.867Z,17.40
2018-04-27T14:24:30.618Z,17.30
2018-04-27T14:27:00.225Z,17.50
2018-04-27T14:29:30.049Z,18.30
2018-04-27T14:32:00.132Z,17.80
2018-04-27T14:34:32.948Z,17.00
2018-04-27T14:55:46.742Z,18.40
2018-04-27T14:58:17.635Z,19.30
2018-04-27T15:19:31.653Z,20.10
2018-04-27T15:22:01.473Z,20.30
2018-04-27T15:43:17.446Z,20.00
2018-04-27T15:45:46.523Z,20.00
2018-04-27T15:48:15.540Z,20.40
2018-04-27T16:09:28.052Z,19.90
2018-04-27T16:11:57.227Z,20.00
2018-04-27T16:14:26.251Z,19.70
2018-04-27T16:16:55.334Z,20.00
2018-04-27T16:19:24.346Z,20.50
2018-04-27T16:21:53.371Z,21.30
2018-04-27T16:24:23.192Z,20.90
2018-04-27T16:26:52.971Z,20.70
2018-04-27T16:29:22.025Z,20.60
2018-04-27T16:31:51.040Z,20.70
2018-04-27T16:34:20.084Z,20.70
2018-04-27T16:36:49.095Z,20.90
2018-04-27T16:39:18.167Z,20.70
2018-04-27T16:41:48.050Z,20.40
2018-04-27T16:44:17.783Z,21.10
2018-04-27T17:05:35.276Z,23.00
2018-04-27T17:08:05.197Z,23.00
2018-04-27T17:10:35.856Z,23.30
2018-04-27T17:13:05.710Z,23.30
2018-04-27T17:15:35.961Z,23.40
2018-04-27T17:18:05.911Z,23.50
2018-04-27T17:20:34.948Z,23.80
2018-04-27T17:23:03.971Z,24.40
2018-04-27T17:25:33.007Z,24.90
2018-04-27T17:28:02.011Z,25.60
2018-04-27T17:49:14.403Z,34.40
2018-04-27T18:10:28.744Z,37.90
2018-04-27T18:12:57.831Z,38.50
2018-04-27T18:15:27.675Z,39.00
2018-04-27T18:17:56.712Z,38.90
2018-04-27T18:20:26.490Z,39.70
2018-04-27T18:22:55.531Z,39.70
2018-04-27T18:25:25.364Z,40.60
2018-04-27T18:27:54.479Z,40.50
2018-04-27T18:30:23.483Z,41.00
2018-04-27T18:32:52.495Z,41.10
2018-04-27T18:35:21.537Z,41.30
2018-04-27T18:37:50.579Z,41.70
2018-04-27T18:40:19.583Z,42.10
2018-04-27T18:42:48.731Z,42.30
2018-04-27T18:45:17.698Z,42.90
2018-04-27T19:06:30.858Z,45.60
2018-04-27T19:08:59.969Z,46.00
2018-04-27T19:11:29.052Z,46.30
2018-04-27T19:13:58.075Z,46.40
2018-04-27T19:16:27.164Z,46.90
2018-04-27T19:18:57.755Z,47.80
2018-04-27T19:21:26.806Z,47.70
2018-04-27T19:23:55.824Z,48.10
2018-04-27T19:45:08.687Z,49.90
2018-04-27T19:47:37.867Z,50.30
2018-04-27T19:50:06.924Z,50.70
2018-04-27T19:52:37.282Z,50.70
2018-04-27T20:13:49.404Z,51.20
2018-04-27T20:16:39.899Z,51.90
2018-04-27T20:40:56.542Z,54.20
2018-04-27T20:43:26.473Z,54.60
2018-04-27T20:45:55.663Z,54.90
2018-04-27T20:48:26.609Z,54.70
2018-04-27T20:51:01.702Z,54.70
2018-04-27T21:12:12.121Z,55.50
2018-04-27T21:14:41.419Z,55.30
2018-04-27T21:17:10.431Z,55.40
2018-04-27T21:19:39.517Z,55.40
2018-04-27T21:22:09.487Z,55.20
2018-04-27T21:43:24.073Z,57.00
2018-04-27T21:45:53.091Z,57.40
2018-04-27T21:48:29.586Z,57.20
2018-04-27T21:50:58.591Z,57.20
2018-04-27T21:53:27.608Z,56.90
2018-04-27T21:55:57.431Z,56.70
2018-04-27T21:58:29.992Z,56.70
2018-04-27T22:19:43.053Z,59.40
2018-04-27T22:22:14.450Z,59.30
2018-04-27T22:46:29.656Z,59.00
2018-04-27T22:49:03.531Z,58.80
2018-04-27T22:51:33.254Z,58.70
2018-04-27T22:54:03.975Z,58.60
2018-04-27T22:59:31.897Z,57.80
2018-04-27T23:02:20.467Z,57.60
2018-04-27T23:23:33.204Z,56.80
2018-04-27T23:26:02.221Z,56.60
2018-04-27T23:28:31.267Z,56.40
2018-04-27T23:31:00.318Z,56.20
2018-04-27T23:33:29.360Z,56.40
2018-04-27T23:54:41.003Z,55.40
2018-04-27T23:57:10.043Z,55.30
2018-04-27T23:59:49.627Z,55.10
